sensor_id;sensor_type;location;lat;lon;timestamp;temperature;humidity
71291;DHT22;59073;51.994;4.448;2023-06-19T00:01:08;21.78;70.40
71291;DHT22;59073;51.994;4.448;2023-06-19T00:03:33;21.69;70.68
71291;DHT22;59073;51.994;4.448;2023-06-19T00:05:59;21.66;70.93
71291;DHT22;59073;51.994;4.448;2023-06-19T00:08:24;21.57;71.56
71291;DHT22;59073;51.994;4.448;2023-06-19T00:10:50;21.38;72.37
71291;DHT22;59073;51.994;4.448;2023-06-19T00:13:16;21.15;73.35
71291;DHT22;59073;51.994;4.448;2023-06-19T00:15:42;21.10;73.84
71291;DHT22;59073;51.994;4.448;2023-06-19T00:18:07;21.14;73.89
71291;DHT22;59073;51.994;4.448;2023-06-19T00:20:32;21.03;74.32
71291;DHT22;59073;51.994;4.448;2023-06-19T00:22:59;20.99;74.52
71291;DHT22;59073;51.994;4.448;2023-06-19T00:25:25;21.02;74.68
71291;DHT22;59073;51.994;4.448;2023-06-19T00:27:50;20.99;74.86
71291;DHT22;59073;51.994;4.448;2023-06-19T00:30:16;21.04;74.66
71291;DHT22;59073;51.994;4.448;2023-06-19T00:32:41;21.08;74.60
71291;DHT22;59073;51.994;4.448;2023-06-19T00:35:15;21.10;74.44
71291;DHT22;59073;51.994;4.448;2023-06-19T00:37:42;21.10;74.52
71291;DHT22;59073;51.994;4.448;2023-06-19T00:40:21;21.10;74.46
71291;DHT22;59073;51.994;4.448;2023-06-19T00:42:49;21.11;74.40
71291;DHT22;59073;51.994;4.448;2023-06-19T00:45:15;21.15;74.39
71291;DHT22;59073;51.994;4.448;2023-06-19T00:47:40;21.17;74.50
71291;DHT22;59073;51.994;4.448;2023-06-19T00:50:06;21.15;74.71
71291;DHT22;59073;51.994;4.448;2023-06-19T00:52:32;21.13;74.99
71291;DHT22;59073;51.994;4.448;2023-06-19T00:54:57;20.97;75.74
71291;DHT22;59073;51.994;4.448;2023-06-19T00:57:23;20.86;76.49
71291;DHT22;59073;51.994;4.448;2023-06-19T00:59:49;20.84;76.76
71291;DHT22;59073;51.994;4.448;2023-06-19T01:02:14;20.86;76.98
71291;DHT22;59073;51.994;4.448;2023-06-19T01:04:40;20.75;77.56
71291;DHT22;59073;51.994;4.448;2023-06-19T01:07:12;20.79;77.78
71291;DHT22;59073;51.994;4.448;2023-06-19T01:09:46;20.72;78.31
71291;DHT22;59073;51.994;4.448;2023-06-19T01:12:19;20.63;78.91
71291;DHT22;59073;51.994;4.448;2023-06-19T01:14:57;20.62;80.05
71291;DHT22;59073;51.994;4.448;2023-06-19T01:17:25;20.51;81.02
71291;DHT22;59073;51.994;4.448;2023-06-19T01:19:51;20.41;81.14
71291;DHT22;59073;51.994;4.448;2023-06-19T01:22:29;20.39;81.35
71291;DHT22;59073;51.994;4.448;2023-06-19T01:24:55;20.38;81.21
71291;DHT22;59073;51.994;4.448;2023-06-19T01:27:22;20.35;81.73
71291;DHT22;59073;51.994;4.448;2023-06-19T01:29:49;20.33;82.15
71291;DHT22;59073;51.994;4.448;2023-06-19T01:32:29;20.33;82.07
71291;DHT22;59073;51.994;4.448;2023-06-19T01:34:58;20.35;81.89
71291;DHT22;59073;51.994;4.448;2023-06-19T01:37:25;20.39;81.77
71291;DHT22;59073;51.994;4.448;2023-06-19T01:39:58;20.38;81.74
71291;DHT22;59073;51.994;4.448;2023-06-19T01:42:26;20.46;81.72
71291;DHT22;59073;51.994;4.448;2023-06-19T01:44:52;20.46;81.57
71291;DHT22;59073;51.994;4.448;2023-06-19T01:47:18;20.51;81.34
71291;DHT22;59073;51.994;4.448;2023-06-19T01:49:46;20.62;80.95
71291;DHT22;59073;51.994;4.448;2023-06-19T01:52:12;20.62;80.92
71291;DHT22;59073;51.994;4.448;2023-06-19T01:54:37;20.65;80.82
71291;DHT22;59073;51.994;4.448;2023-06-19T01:57:03;20.69;80.65
71291;DHT22;59073;51.994;4.448;2023-06-19T01:59:29;20.76;80.26
71291;DHT22;59073;51.994;4.448;2023-06-19T02:01:54;20.73;80.49
71291;DHT22;59073;51.994;4.448;2023-06-19T02:04:19;20.77;80.43
71291;DHT22;59073;51.994;4.448;2023-06-19T02:06:45;20.71;80.74
71291;DHT22;59073;51.994;4.448;2023-06-19T02:09:10;20.72;80.99
71291;DHT22;59073;51.994;4.448;2023-06-19T02:11:36;20.68;81.42
71291;DHT22;59073;51.994;4.448;2023-06-19T02:14:01;20.63;81.73
71291;DHT22;59073;51.994;4.448;2023-06-19T02:16:27;20.65;81.79
71291;DHT22;59073;51.994;4.448;2023-06-19T02:18:52;20.69;81.91
71291;DHT22;59073;51.994;4.448;2023-06-19T02:21:18;20.71;81.93
71291;DHT22;59073;51.994;4.448;2023-06-19T02:23:43;20.69;82.12
71291;DHT22;59073;51.994;4.448;2023-06-19T02:26:08;20.65;83.00
71291;DHT22;59073;51.994;4.448;2023-06-19T02:28:34;20.46;83.93
71291;DHT22;59073;51.994;4.448;2023-06-19T02:30:59;20.33;84.75
71291;DHT22;59073;51.994;4.448;2023-06-19T02:33:25;20.29;85.05
71291;DHT22;59073;51.994;4.448;2023-06-19T02:35:50;20.29;85.19
71291;DHT22;59073;51.994;4.448;2023-06-19T02:38:16;20.33;85.18
71291;DHT22;59073;51.994;4.448;2023-06-19T02:40:43;20.32;85.04
71291;DHT22;59073;51.994;4.448;2023-06-19T02:43:09;20.31;85.07
71291;DHT22;59073;51.994;4.448;2023-06-19T02:45:34;20.45;84.69
71291;DHT22;59073;51.994;4.448;2023-06-19T02:48:00;20.39;84.71
71291;DHT22;59073;51.994;4.448;2023-06-19T02:50:25;20.45;84.75
71291;DHT22;59073;51.994;4.448;2023-06-19T02:52:50;20.49;85.13
71291;DHT22;59073;51.994;4.448;2023-06-19T02:55:16;20.36;85.41
71291;DHT22;59073;51.994;4.448;2023-06-19T02:57:41;20.32;85.90
71291;DHT22;59073;51.994;4.448;2023-06-19T03:00:07;20.28;86.07
71291;DHT22;59073;51.994;4.448;2023-06-19T03:02:34;20.18;86.25
71291;DHT22;59073;51.994;4.448;2023-06-19T03:05:01;20.15;86.14
71291;DHT22;59073;51.994;4.448;2023-06-19T03:07:26;20.00;86.44
71291;DHT22;59073;51.994;4.448;2023-06-19T03:09:54;19.94;86.67
71291;DHT22;59073;51.994;4.448;2023-06-19T03:12:19;19.91;86.65
71291;DHT22;59073;51.994;4.448;2023-06-19T03:14:45;19.87;86.72
71291;DHT22;59073;51.994;4.448;2023-06-19T03:17:10;19.88;86.65
71291;DHT22;59073;51.994;4.448;2023-06-19T03:19:35;19.85;86.56
71291;DHT22;59073;51.994;4.448;2023-06-19T03:22:01;19.81;86.32
71291;DHT22;59073;51.994;4.448;2023-06-19T03:24:28;19.67;86.48
71291;DHT22;59073;51.994;4.448;2023-06-19T03:26:53;19.61;86.46
71291;DHT22;59073;51.994;4.448;2023-06-19T03:29:19;19.54;86.36
71291;DHT22;59073;51.994;4.448;2023-06-19T03:31:44;19.56;86.43
71291;DHT22;59073;51.994;4.448;2023-06-19T03:34:10;19.60;86.31
71291;DHT22;59073;51.994;4.448;2023-06-19T03:36:35;19.53;86.10
71291;DHT22;59073;51.994;4.448;2023-06-19T03:39:00;19.43;86.19
71291;DHT22;59073;51.994;4.448;2023-06-19T03:41:26;19.40;86.37
71291;DHT22;59073;51.994;4.448;2023-06-19T03:43:51;19.37;86.21
71291;DHT22;59073;51.994;4.448;2023-06-19T03:46:17;19.40;85.89
71291;DHT22;59073;51.994;4.448;2023-06-19T03:48:42;19.39;85.96
71291;DHT22;59073;51.994;4.448;2023-06-19T03:51:07;19.39;85.70
71291;DHT22;59073;51.994;4.448;2023-06-19T03:53:33;19.32;85.77
71291;DHT22;59073;51.994;4.448;2023-06-19T03:55:58;19.30;85.74
71291;DHT22;59073;51.994;4.448;2023-06-19T03:58:24;19.32;85.51
71291;DHT22;59073;51.994;4.448;2023-06-19T04:00:49;19.34;84.92
71291;DHT22;59073;51.994;4.448;2023-06-19T04:03:14;19.36;84.87
71291;DHT22;59073;51.994;4.448;2023-06-19T04:05:40;19.39;84.64
71291;DHT22;59073;51.994;4.448;2023-06-19T04:08:07;19.37;84.51
71291;DHT22;59073;51.994;4.448;2023-06-19T04:10:32;19.34;84.64
71291;DHT22;59073;51.994;4.448;2023-06-19T04:12:58;19.26;84.86
71291;DHT22;59073;51.994;4.448;2023-06-19T04:15:23;19.24;85.09
71291;DHT22;59073;51.994;4.448;2023-06-19T04:17:49;19.24;84.95
71291;DHT22;59073;51.994;4.448;2023-06-19T04:20:14;19.18;84.99
71291;DHT22;59073;51.994;4.448;2023-06-19T04:22:41;19.26;84.95
71291;DHT22;59073;51.994;4.448;2023-06-19T04:25:08;19.23;84.75
71291;DHT22;59073;51.994;4.448;2023-06-19T04:27:34;19.15;85.08
71291;DHT22;59073;51.994;4.448;2023-06-19T04:30:01;19.12;85.16
71291;DHT22;59073;51.994;4.448;2023-06-19T04:32:27;19.19;84.79
71291;DHT22;59073;51.994;4.448;2023-06-19T04:34:52;19.11;84.69
71291;DHT22;59073;51.994;4.448;2023-06-19T04:37:17;19.20;84.65
71291;DHT22;59073;51.994;4.448;2023-06-19T04:39:47;19.19;84.09
71291;DHT22;59073;51.994;4.448;2023-06-19T04:42:13;19.23;84.12
71291;DHT22;59073;51.994;4.448;2023-06-19T04:44:47;19.34;84.27
71291;DHT22;59073;51.994;4.448;2023-06-19T04:47:16;19.39;83.88
71291;DHT22;59073;51.994;4.448;2023-06-19T04:49:41;19.40;83.98
71291;DHT22;59073;51.994;4.448;2023-06-19T04:52:07;19.37;83.84
71291;DHT22;59073;51.994;4.448;2023-06-19T04:54:32;19.49;83.52
71291;DHT22;59073;51.994;4.448;2023-06-19T04:56:58;19.45;83.01
71291;DHT22;59073;51.994;4.448;2023-06-19T04:59:24;19.37;83.37
71291;DHT22;59073;51.994;4.448;2023-06-19T05:01:49;19.32;83.23
71291;DHT22;59073;51.994;4.448;2023-06-19T05:04:19;19.27;83.63
71291;DHT22;59073;51.994;4.448;2023-06-19T05:06:44;19.30;83.67
71291;DHT22;59073;51.994;4.448;2023-06-19T05:09:09;19.30;83.84
71291;DHT22;59073;51.994;4.448;2023-06-19T05:11:36;19.23;83.50
71291;DHT22;59073;51.994;4.448;2023-06-19T05:14:02;19.29;82.95
71291;DHT22;59073;51.994;4.448;2023-06-19T05:16:27;19.27;82.56
71291;DHT22;59073;51.994;4.448;2023-06-19T05:18:53;19.27;82.75
71291;DHT22;59073;51.994;4.448;2023-06-19T05:21:18;19.30;82.52
71291;DHT22;59073;51.994;4.448;2023-06-19T05:23:43;19.29;82.44
71291;DHT22;59073;51.994;4.448;2023-06-19T05:26:09;19.30;82.51
71291;DHT22;59073;51.994;4.448;2023-06-19T05:28:34;19.36;82.14
71291;DHT22;59073;51.994;4.448;2023-06-19T05:31:00;19.36;82.01
71291;DHT22;59073;51.994;4.448;2023-06-19T05:33:25;19.36;81.93
71291;DHT22;59073;51.994;4.448;2023-06-19T05:35:51;19.32;81.77
71291;DHT22;59073;51.994;4.448;2023-06-19T05:38:19;19.16;81.59
71291;DHT22;59073;51.994;4.448;2023-06-19T05:40:44;19.13;82.00
71291;DHT22;59073;51.994;4.448;2023-06-19T05:43:10;19.13;81.57
71291;DHT22;59073;51.994;4.448;2023-06-19T05:45:35;19.13;81.63
71291;DHT22;59073;51.994;4.448;2023-06-19T05:48:01;19.01;81.49
71291;DHT22;59073;51.994;4.448;2023-06-19T05:50:26;18.89;81.75
71291;DHT22;59073;51.994;4.448;2023-06-19T05:52:52;18.78;81.94
71291;DHT22;59073;51.994;4.448;2023-06-19T05:55:17;18.74;81.86
71291;DHT22;59073;51.994;4.448;2023-06-19T05:57:43;18.74;82.05
71291;DHT22;59073;51.994;4.448;2023-06-19T06:00:08;18.84;82.01
71291;DHT22;59073;51.994;4.448;2023-06-19T06:02:39;18.92;81.72
71291;DHT22;59073;51.994;4.448;2023-06-19T06:05:05;18.94;81.43
71291;DHT22;59073;51.994;4.448;2023-06-19T06:07:31;18.95;81.20
71291;DHT22;59073;51.994;4.448;2023-06-19T06:09:56;18.87;81.24
71291;DHT22;59073;51.994;4.448;2023-06-19T06:12:21;18.81;81.66
71291;DHT22;59073;51.994;4.448;2023-06-19T06:14:47;18.79;81.74
71291;DHT22;59073;51.994;4.448;2023-06-19T06:17:12;18.81;81.06
71291;DHT22;59073;51.994;4.448;2023-06-19T06:19:38;18.85;81.21
71291;DHT22;59073;51.994;4.448;2023-06-19T06:22:04;18.91;80.48
71291;DHT22;59073;51.994;4.448;2023-06-19T06:24:30;18.98;80.45
71291;DHT22;59073;51.994;4.448;2023-06-19T06:26:55;18.95;80.75
71291;DHT22;59073;51.994;4.448;2023-06-19T06:29:20;18.88;80.53
71291;DHT22;59073;51.994;4.448;2023-06-19T06:31:47;18.96;80.43
71291;DHT22;59073;51.994;4.448;2023-06-19T06:34:12;19.02;79.98
71291;DHT22;59073;51.994;4.448;2023-06-19T06:36:39;19.12;79.92
71291;DHT22;59073;51.994;4.448;2023-06-19T06:39:04;19.16;79.60
71291;DHT22;59073;51.994;4.448;2023-06-19T06:41:31;19.12;79.96
71291;DHT22;59073;51.994;4.448;2023-06-19T06:43:57;19.16;79.69
71291;DHT22;59073;51.994;4.448;2023-06-19T06:46:22;19.27;79.35
71291;DHT22;59073;51.994;4.448;2023-06-19T06:48:48;19.36;79.38
71291;DHT22;59073;51.994;4.448;2023-06-19T06:51:14;19.50;78.90
71291;DHT22;59073;51.994;4.448;2023-06-19T06:53:40;19.60;79.03
71291;DHT22;59073;51.994;4.448;2023-06-19T06:56:05;19.74;78.12
71291;DHT22;59073;51.994;4.448;2023-06-19T06:58:31;19.70;77.82
71291;DHT22;59073;51.994;4.448;2023-06-19T07:00:56;19.81;78.17
71291;DHT22;59073;51.994;4.448;2023-06-19T07:03:22;19.71;77.45
71291;DHT22;59073;51.994;4.448;2023-06-19T07:05:47;19.77;77.46
71291;DHT22;59073;51.994;4.448;2023-06-19T07:08:13;19.90;77.47
71291;DHT22;59073;51.994;4.448;2023-06-19T07:10:38;19.91;77.28
71291;DHT22;59073;51.994;4.448;2023-06-19T07:13:04;20.00;77.38
71291;DHT22;59073;51.994;4.448;2023-06-19T07:15:29;20.17;76.73
71291;DHT22;59073;51.994;4.448;2023-06-19T07:17:56;20.36;76.33
71291;DHT22;59073;51.994;4.448;2023-06-19T07:20:21;20.59;76.12
71291;DHT22;59073;51.994;4.448;2023-06-19T07:22:47;20.73;76.06
71291;DHT22;59073;51.994;4.448;2023-06-19T07:25:13;20.84;75.23
71291;DHT22;59073;51.994;4.448;2023-06-19T07:27:40;20.82;75.03
71291;DHT22;59073;51.994;4.448;2023-06-19T07:30:06;20.87;75.59
71291;DHT22;59073;51.994;4.448;2023-06-19T07:32:32;21.13;75.10
71291;DHT22;59073;51.994;4.448;2023-06-19T07:34:58;21.28;74.38
71291;DHT22;59073;51.994;4.448;2023-06-19T07:37:23;21.41;73.73
71291;DHT22;59073;51.994;4.448;2023-06-19T07:39:51;21.58;72.85
71291;DHT22;59073;51.994;4.448;2023-06-19T07:42:18;21.72;72.72
71291;DHT22;59073;51.994;4.448;2023-06-19T07:44:45;21.96;72.06
71291;DHT22;59073;51.994;4.448;2023-06-19T07:47:11;22.06;72.35
71291;DHT22;59073;51.994;4.448;2023-06-19T07:49:36;21.95;71.64
71291;DHT22;59073;51.994;4.448;2023-06-19T07:52:03;21.92;71.28
71291;DHT22;59073;51.994;4.448;2023-06-19T07:54:29;21.74;72.30
71291;DHT22;59073;51.994;4.448;2023-06-19T07:56:55;21.78;72.52
71291;DHT22;59073;51.994;4.448;2023-06-19T07:59:21;21.77;72.50
71291;DHT22;59073;51.994;4.448;2023-06-19T08:01:48;21.82;72.11
71291;DHT22;59073;51.994;4.448;2023-06-19T08:04:13;21.72;72.48
71291;DHT22;59073;51.994;4.448;2023-06-19T08:06:39;21.66;72.80
71291;DHT22;59073;51.994;4.448;2023-06-19T08:09:04;21.79;72.39
71291;DHT22;59073;51.994;4.448;2023-06-19T08:11:30;21.98;71.36
71291;DHT22;59073;51.994;4.448;2023-06-19T08:13:55;21.89;71.46
71291;DHT22;59073;51.994;4.448;2023-06-19T08:16:21;22.03;70.32
71291;DHT22;59073;51.994;4.448;2023-06-19T08:18:46;21.99;70.37
71291;DHT22;59073;51.994;4.448;2023-06-19T08:21:13;22.02;70.32
71291;DHT22;59073;51.994;4.448;2023-06-19T08:23:38;22.02;70.32
71291;DHT22;59073;51.994;4.448;2023-06-19T08:26:04;22.17;70.21
71291;DHT22;59073;51.994;4.448;2023-06-19T08:28:33;22.26;70.25
71291;DHT22;59073;51.994;4.448;2023-06-19T08:30:59;22.57;70.05
71291;DHT22;59073;51.994;4.448;2023-06-19T08:33:24;22.68;68.78
71291;DHT22;59073;51.994;4.448;2023-06-19T08:35:50;22.81;69.12
71291;DHT22;59073;51.994;4.448;2023-06-19T08:38:15;22.78;69.33
71291;DHT22;59073;51.994;4.448;2023-06-19T08:40:42;22.64;69.45
71291;DHT22;59073;51.994;4.448;2023-06-19T08:43:08;22.65;69.26
71291;DHT22;59073;51.994;4.448;2023-06-19T08:45:34;23.05;68.80
71291;DHT22;59073;51.994;4.448;2023-06-19T08:48:00;23.77;66.63
71291;DHT22;59073;51.994;4.448;2023-06-19T08:50:31;24.31;65.25
71291;DHT22;59073;51.994;4.448;2023-06-19T08:52:57;24.31;64.25
71291;DHT22;59073;51.994;4.448;2023-06-19T08:55:23;24.50;63.54
71291;DHT22;59073;51.994;4.448;2023-06-19T08:57:49;24.83;63.54
71291;DHT22;59073;51.994;4.448;2023-06-19T09:00:27;25.22;62.73
71291;DHT22;59073;51.994;4.448;2023-06-19T09:03:00;25.36;61.45
71291;DHT22;59073;51.994;4.448;2023-06-19T09:05:26;24.99;61.88
71291;DHT22;59073;51.994;4.448;2023-06-19T09:08:00;24.98;61.97
71291;DHT22;59073;51.994;4.448;2023-06-19T09:10:28;25.26;61.72
71291;DHT22;59073;51.994;4.448;2023-06-19T09:12:58;24.86;61.62
71291;DHT22;59073;51.994;4.448;2023-06-19T09:15:28;24.72;62.90
71291;DHT22;59073;51.994;4.448;2023-06-19T09:20:31;24.21;62.71
71291;DHT22;59073;51.994;4.448;2023-06-19T09:23:00;23.93;64.12
71291;DHT22;59073;51.994;4.448;2023-06-19T09:25:25;23.86;64.06
71291;DHT22;59073;51.994;4.448;2023-06-19T09:27:53;23.79;63.56
71291;DHT22;59073;51.994;4.448;2023-06-19T09:30:20;24.04;64.21
71291;DHT22;59073;51.994;4.448;2023-06-19T09:32:45;24.40;63.47
71291;DHT22;59073;51.994;4.448;2023-06-19T09:35:11;24.44;63.67
71291;DHT22;59073;51.994;4.448;2023-06-19T09:37:39;24.64;62.93
71291;DHT22;59073;51.994;4.448;2023-06-19T09:40:06;25.16;63.00
71291;DHT22;59073;51.994;4.448;2023-06-19T09:42:37;25.56;60.61
71291;DHT22;59073;51.994;4.448;2023-06-19T09:45:08;25.47;60.47
71291;DHT22;59073;51.994;4.448;2023-06-19T09:47:39;25.69;60.86
71291;DHT22;59073;51.994;4.448;2023-06-19T09:50:06;25.42;61.10
71291;DHT22;59073;51.994;4.448;2023-06-19T09:52:33;25.78;60.73
71291;DHT22;59073;51.994;4.448;2023-06-19T09:55:04;25.74;59.79
71291;DHT22;59073;51.994;4.448;2023-06-19T09:57:32;25.66;60.10
71291;DHT22;59073;51.994;4.448;2023-06-19T09:59:59;25.24;60.55
71291;DHT22;59073;51.994;4.448;2023-06-19T10:02:35;25.01;60.65
71291;DHT22;59073;51.994;4.448;2023-06-19T10:05:01;25.29;61.11
71291;DHT22;59073;51.994;4.448;2023-06-19T10:07:33;25.66;59.73
71291;DHT22;59073;51.994;4.448;2023-06-19T10:12:37;25.39;60.98
71291;DHT22;59073;51.994;4.448;2023-06-19T10:17:46;25.91;58.84
71291;DHT22;59073;51.994;4.448;2023-06-19T10:23:05;26.41;57.26
71291;DHT22;59073;51.994;4.448;2023-06-19T10:25:33;26.63;58.16
71291;DHT22;59073;51.994;4.448;2023-06-19T10:27:59;26.73;55.91
71291;DHT22;59073;51.994;4.448;2023-06-19T10:30:25;26.56;56.58
71291;DHT22;59073;51.994;4.448;2023-06-19T10:32:50;26.32;57.99
71291;DHT22;59073;51.994;4.448;2023-06-19T10:35:17;26.22;58.47
71291;DHT22;59073;51.994;4.448;2023-06-19T10:37:43;25.94;59.26
71291;DHT22;59073;51.994;4.448;2023-06-19T10:40:10;25.91;59.75
71291;DHT22;59073;51.994;4.448;2023-06-19T10:42:40;26.14;58.25
71291;DHT22;59073;51.994;4.448;2023-06-19T10:45:08;26.45;57.91
71291;DHT22;59073;51.994;4.448;2023-06-19T10:47:42;27.08;56.48
71291;DHT22;59073;51.994;4.448;2023-06-19T10:50:12;27.48;55.76
71291;DHT22;59073;51.994;4.448;2023-06-19T10:52:44;27.33;55.55
71291;DHT22;59073;51.994;4.448;2023-06-19T10:55:12;26.78;57.04
71291;DHT22;59073;51.994;4.448;2023-06-19T10:57:37;26.55;56.33
71291;DHT22;59073;51.994;4.448;2023-06-19T11:00:04;26.48;56.93
71291;DHT22;59073;51.994;4.448;2023-06-19T11:02:36;26.91;56.72
71291;DHT22;59073;51.994;4.448;2023-06-19T11:05:04;27.40;54.72
71291;DHT22;59073;51.994;4.448;2023-06-19T11:07:31;27.71;55.43
71291;DHT22;59073;51.994;4.448;2023-06-19T11:09:57;27.86;52.58
71291;DHT22;59073;51.994;4.448;2023-06-19T11:12:22;28.14;52.34
71291;DHT22;59073;51.994;4.448;2023-06-19T11:14:49;27.63;53.28
71291;DHT22;59073;51.994;4.448;2023-06-19T11:17:15;27.68;52.97
71291;DHT22;59073;51.994;4.448;2023-06-19T11:19:41;27.63;53.59
71291;DHT22;59073;51.994;4.448;2023-06-19T11:22:09;27.24;54.40
71291;DHT22;59073;51.994;4.448;2023-06-19T11:24:34;27.08;55.26
71291;DHT22;59073;51.994;4.448;2023-06-19T11:27:00;27.14;56.24
71291;DHT22;59073;51.994;4.448;2023-06-19T11:29:26;26.80;55.87
71291;DHT22;59073;51.994;4.448;2023-06-19T11:32:05;26.29;56.54
71291;DHT22;59073;51.994;4.448;2023-06-19T11:34:33;26.69;56.83
71291;DHT22;59073;51.994;4.448;2023-06-19T11:37:21;26.83;56.98
71291;DHT22;59073;51.994;4.448;2023-06-19T11:39:49;26.60;54.83
71291;DHT22;59073;51.994;4.448;2023-06-19T11:42:15;26.87;54.08
71291;DHT22;59073;51.994;4.448;2023-06-19T11:45:03;27.06;53.83
71291;DHT22;59073;51.994;4.448;2023-06-19T11:47:31;27.45;53.79
71291;DHT22;59073;51.994;4.448;2023-06-19T11:49:58;27.65;53.20
71291;DHT22;59073;51.994;4.448;2023-06-19T11:52:23;27.35;54.30
71291;DHT22;59073;51.994;4.448;2023-06-19T11:54:49;26.89;54.42
71291;DHT22;59073;51.994;4.448;2023-06-19T11:57:14;27.01;53.92
71291;DHT22;59073;51.994;4.448;2023-06-19T11:59:41;27.29;54.63
71291;DHT22;59073;51.994;4.448;2023-06-19T12:02:07;27.65;53.58
71291;DHT22;59073;51.994;4.448;2023-06-19T12:04:33;27.78;53.42
71291;DHT22;59073;51.994;4.448;2023-06-19T12:06:59;28.20;51.44
71291;DHT22;59073;51.994;4.448;2023-06-19T12:09:25;28.36;50.45
71291;DHT22;59073;51.994;4.448;2023-06-19T12:11:50;28.20;50.92
71291;DHT22;59073;51.994;4.448;2023-06-19T12:14:15;27.93;51.41
71291;DHT22;59073;51.994;4.448;2023-06-19T12:16:41;27.99;52.61
71291;DHT22;59073;51.994;4.448;2023-06-19T12:19:07;28.13;50.30
71291;DHT22;59073;51.994;4.448;2023-06-19T12:21:32;28.29;50.84
71291;DHT22;59073;51.994;4.448;2023-06-19T12:23:58;28.29;48.23
71291;DHT22;59073;51.994;4.448;2023-06-19T12:26:23;28.63;48.38
71291;DHT22;59073;51.994;4.448;2023-06-19T12:28:51;28.87;49.05
71291;DHT22;59073;51.994;4.448;2023-06-19T12:31:17;28.75;48.92
71291;DHT22;59073;51.994;4.448;2023-06-19T12:33:43;28.87;48.46
71291;DHT22;59073;51.994;4.448;2023-06-19T12:36:14;28.92;50.25
71291;DHT22;59073;51.994;4.448;2023-06-19T12:38:43;29.11;48.23
71291;DHT22;59073;51.994;4.448;2023-06-19T12:41:08;29.19;47.67
71291;DHT22;59073;51.994;4.448;2023-06-19T12:43:34;29.14;48.12
71291;DHT22;59073;51.994;4.448;2023-06-19T12:46:00;29.05;46.88
71291;DHT22;59073;51.994;4.448;2023-06-19T12:48:26;28.88;47.58
71291;DHT22;59073;51.994;4.448;2023-06-19T12:50:52;28.92;49.99
71291;DHT22;59073;51.994;4.448;2023-06-19T12:53:17;28.19;50.38
71291;DHT22;59073;51.994;4.448;2023-06-19T12:55:43;27.81;52.05
71291;DHT22;59073;51.994;4.448;2023-06-19T12:58:09;27.92;52.41
71291;DHT22;59073;51.994;4.448;2023-06-19T13:00:34;27.95;52.65
71291;DHT22;59073;51.994;4.448;2023-06-19T13:03:00;27.84;52.00
71291;DHT22;59073;51.994;4.448;2023-06-19T13:05:25;28.01;52.69
71291;DHT22;59073;51.994;4.448;2023-06-19T13:07:51;27.92;50.54
71291;DHT22;59073;51.994;4.448;2023-06-19T13:10:16;27.79;51.51
71291;DHT22;59073;51.994;4.448;2023-06-19T13:12:41;27.85;53.93
71291;DHT22;59073;51.994;4.448;2023-06-19T13:15:07;27.79;52.00
71291;DHT22;59073;51.994;4.448;2023-06-19T13:17:33;27.72;52.91
71291;DHT22;59073;51.994;4.448;2023-06-19T13:19:58;27.65;51.82
71291;DHT22;59073;51.994;4.448;2023-06-19T13:22:24;27.24;51.75
71291;DHT22;59073;51.994;4.448;2023-06-19T13:24:51;27.10;52.87
71291;DHT22;59073;51.994;4.448;2023-06-19T13:27:16;27.07;52.12
71291;DHT22;59073;51.994;4.448;2023-06-19T13:29:42;26.94;51.50
71291;DHT22;59073;51.994;4.448;2023-06-19T13:32:07;26.08;53.19
71291;DHT22;59073;51.994;4.448;2023-06-19T13:34:33;26.15;54.58
71291;DHT22;59073;51.994;4.448;2023-06-19T13:36:58;26.64;55.12
71291;DHT22;59073;51.994;4.448;2023-06-19T13:39:24;27.00;53.49
71291;DHT22;59073;51.994;4.448;2023-06-19T13:41:49;26.84;51.98
71291;DHT22;59073;51.994;4.448;2023-06-19T13:44:14;26.94;53.33
71291;DHT22;59073;51.994;4.448;2023-06-19T13:46:40;27.29;52.94
71291;DHT22;59073;51.994;4.448;2023-06-19T13:49:05;27.61;52.13
71291;DHT22;59073;51.994;4.448;2023-06-19T13:51:31;27.69;50.70
71291;DHT22;59073;51.994;4.448;2023-06-19T13:53:57;27.66;49.90
71291;DHT22;59073;51.994;4.448;2023-06-19T13:56:22;27.52;53.25
71291;DHT22;59073;51.994;4.448;2023-06-19T13:58:50;27.38;50.63
71291;DHT22;59073;51.994;4.448;2023-06-19T14:01:16;27.42;50.69
71291;DHT22;59073;51.994;4.448;2023-06-19T14:03:41;27.42;50.48
71291;DHT22;59073;51.994;4.448;2023-06-19T14:06:07;27.40;51.21
71291;DHT22;59073;51.994;4.448;2023-06-19T14:08:33;27.40;49.54
71291;DHT22;59073;51.994;4.448;2023-06-19T14:10:59;27.41;51.08
71291;DHT22;59073;51.994;4.448;2023-06-19T14:13:24;27.29;48.39
71291;DHT22;59073;51.994;4.448;2023-06-19T14:15:49;27.42;49.75
71291;DHT22;59073;51.994;4.448;2023-06-19T14:18:16;27.42;51.42
71291;DHT22;59073;51.994;4.448;2023-06-19T14:20:41;27.30;51.27
71291;DHT22;59073;51.994;4.448;2023-06-19T14:23:07;27.29;49.68
71291;DHT22;59073;51.994;4.448;2023-06-19T14:25:33;27.20;49.63
71291;DHT22;59073;51.994;4.448;2023-06-19T14:27:59;26.76;50.23
71291;DHT22;59073;51.994;4.448;2023-06-19T14:30:25;26.64;52.35
71291;DHT22;59073;51.994;4.448;2023-06-19T14:32:50;26.91;53.84
71291;DHT22;59073;51.994;4.448;2023-06-19T14:35:15;26.97;50.35
71291;DHT22;59073;51.994;4.448;2023-06-19T14:37:42;27.21;51.51
71291;DHT22;59073;51.994;4.448;2023-06-19T14:40:07;27.03;49.90
71291;DHT22;59073;51.994;4.448;2023-06-19T14:42:33;27.14;51.92
71291;DHT22;59073;51.994;4.448;2023-06-19T14:44:58;27.41;50.58
71291;DHT22;59073;51.994;4.448;2023-06-19T14:47:24;27.44;50.63
71291;DHT22;59073;51.994;4.448;2023-06-19T14:49:50;27.48;50.45
71291;DHT22;59073;51.994;4.448;2023-06-19T14:52:15;27.57;49.84
71291;DHT22;59073;51.994;4.448;2023-06-19T14:54:42;27.58;49.66
71291;DHT22;59073;51.994;4.448;2023-06-19T14:57:07;27.66;50.81
71291;DHT22;59073;51.994;4.448;2023-06-19T14:59:32;27.66;50.33
71291;DHT22;59073;51.994;4.448;2023-06-19T15:01:58;27.65;50.32
71291;DHT22;59073;51.994;4.448;2023-06-19T15:04:23;27.75;50.22
71291;DHT22;59073;51.994;4.448;2023-06-19T15:06:49;27.77;49.25
71291;DHT22;59073;51.994;4.448;2023-06-19T15:09:14;27.63;47.90
71291;DHT22;59073;51.994;4.448;2023-06-19T15:11:40;27.59;50.66
71291;DHT22;59073;51.994;4.448;2023-06-19T15:14:05;27.51;49.56
71291;DHT22;59073;51.994;4.448;2023-06-19T15:16:31;27.63;49.94
71291;DHT22;59073;51.994;4.448;2023-06-19T15:18:57;27.66;49.85
71291;DHT22;59073;51.994;4.448;2023-06-19T15:21:22;27.24;49.89
71291;DHT22;59073;51.994;4.448;2023-06-19T15:23:47;26.96;50.96
71291;DHT22;59073;51.994;4.448;2023-06-19T15:26:15;26.63;50.56
71291;DHT22;59073;51.994;4.448;2023-06-19T15:28:40;25.92;53.32
71291;DHT22;59073;51.994;4.448;2023-06-19T15:31:09;25.70;53.69
71291;DHT22;59073;51.994;4.448;2023-06-19T15:33:34;25.98;55.15
71291;DHT22;59073;51.994;4.448;2023-06-19T15:36:00;26.26;52.66